Time;durP1;ratioP1;P1;durP2;ratioP2;P2;SDS_P1;SDS_P2;PMS_P1;PMS_P2;Temp;Humidity;BMP_temperature;BMP_pressure;BME280_temperature;BME280_humidity;BME280_pressure;Samples;Min_cycle;Max_cycle;Signal;HPM_P1;HPM_P2
2022/01/21 00:01:29;;;;;;;4.20;1.10;;;;;;;-3.61;67.65;97720.12;105178;1271;75035;-23
2022/01/21 00:03:57;;;;;;;1.60;1.20;;;;;;;-3.65;67.60;97710.09;105219;1271;74316;-23
2022/01/21 00:06:25;;;;;;;4.60;1.00;;;;;;;-3.64;67.82;97710.08;104926;1271;61743;-23
2022/01/21 00:08:54;;;;;;;1.90;1.40;;;;;;;-3.25;66.45;97704.05;104882;1271;61067;-23
2022/01/21 00:11:25;;;;;;;2.90;1.90;;;;;;;-2.67;64.08;97698.20;104998;1271;75588;-23
2022/01/21 00:13:53;;;;;;;2.30;1.40;;;;;;;-2.56;63.24;97696.86;104890;1271;76022;-23
2022/01/21 00:16:24;;;;;;;1.90;1.40;;;;;;;-2.68;63.10;97685.07;104857;1271;73456;-23
2022/01/21 00:19:07;;;;;;;3.00;1.10;;;;;;;-2.91;64.14;97675.62;104662;1271;61637;-23
2022/01/21 00:30:15;;;;;;;3.50;1.20;;;;;;;-3.36;66.44;97695.90;104942;1271;73214;-23
2022/01/21 00:32:45;;;;;;;6.60;1.80;;;;;;;-3.44;66.76;97676.77;104920;1271;61143;-23
2022/01/21 00:35:14;;;;;;;5.00;1.30;;;;;;;-3.47;67.00;97684.66;104774;1271;61032;-23
2022/01/21 00:37:43;;;;;;;2.60;1.50;;;;;;;-3.47;67.32;97681.78;105049;1271;75644;-23
2022/01/21 00:40:15;;;;;;;2.30;1.30;;;;;;;-3.47;67.00;97677.06;104824;1271;75960;-23
2022/01/21 00:45:14;;;;;;;3.00;1.10;;;;;;;-3.14;67.07;97696.72;105126;1271;62185;-23
2022/01/21 00:47:43;;;;;;;2.40;1.00;;;;;;;-2.63;64.78;97681.23;104923;1271;61239;-23
2022/01/21 00:50:13;;;;;;;1.70;1.30;;;;;;;-2.43;64.01;97687.23;104852;1271;74663;-23
2022/01/21 00:52:42;;;;;;;3.00;1.20;;;;;;;-2.46;63.89;97688.23;104914;1274;76015;-23
2022/01/21 00:55:10;;;;;;;3.30;1.00;;;;;;;-2.58;64.26;97698.15;105333;1271;74628;-23
2022/01/21 00:57:39;;;;;;;4.30;1.40;;;;;;;-2.78;65.22;97691.46;105184;1271;61153;-23
2022/01/21 01:00:09;;;;;;;9.40;1.20;;;;;;;-2.89;66.17;97699.80;105302;1269;61698;-23
2022/01/21 01:02:38;;;;;;;2.40;1.20;;;;;;;-3.06;66.90;97699.24;104901;1271;75308;-23
2022/01/21 01:05:07;;;;;;;2.30;1.30;;;;;;;-3.18;68.41;97704.41;104992;1271;75118;-23
2022/01/21 01:07:36;;;;;;;4.70;1.80;;;;;;;-3.29;69.52;97696.23;104858;1271;73432;-23
2022/01/21 01:10:06;;;;;;;3.20;1.00;;;;;;;-3.48;71.66;97700.84;104921;1271;61141;-23
2022/01/21 01:19:52;;;;;;;2.60;1.50;;;;;;;-3.40;73.18;97703.71;104799;1274;61160;-23
2022/01/21 01:21:18;;;;;;;1.70;1.10;;;;;;;-2.87;71.71;97703.83;104859;1271;72625;-23
2022/01/21 01:24:03;;;;;;;2.40;1.10;;;;;;;-3.12;72.61;97704.29;104992;1271;61118;-23
2022/01/21 01:29:20;;;;;;;6.10;1.40;;;;;;;-3.43;73.08;97698.75;105292;1271;74388;-21
2022/01/21 01:31:48;;;;;;;3.70;1.80;;;;;;;-3.49;72.82;97700.42;105243;1271;74133;-23
2022/01/21 01:34:17;;;;;;;3.20;1.20;;;;;;;-3.42;72.86;97688.71;105104;1271;74388;-25
2022/01/21 01:36:47;;;;;;;3.00;0.90;;;;;;;-2.86;70.65;97702.71;104970;1271;61128;-24
2022/01/21 01:39:32;;;;;;;6.70;1.70;;;;;;;-2.63;69.70;97690.59;105024;1271;61838;-23
2022/01/21 01:50:36;;;;;;;2.50;2.00;;;;;;;-3.33;72.42;97677.61;105238;1271;61352;-25
2022/01/21 01:53:05;;;;;;;4.60;1.60;;;;;;;-3.42;72.79;97675.98;105169;1271;61216;-23
2022/01/21 01:55:33;;;;;;;2.10;1.40;;;;;;;-3.42;73.33;97683.11;105148;1272;74410;-23
2022/01/21 01:58:02;;;;;;;3.00;1.30;;;;;;;-2.94;71.79;97686.98;105228;1271;76296;-23
2022/01/21 02:00:30;;;;;;;6.00;2.00;;;;;;;-2.80;70.87;97677.31;105182;1271;74144;-24
2022/01/21 02:03:10;;;;;;;3.40;1.70;;;;;;;-2.83;70.49;97681.19;105264;1271;61236;-23
2022/01/21 02:05:38;;;;;;;6.20;2.40;;;;;;;-2.94;71.14;97679.83;105061;1274;61118;-23
2022/01/21 02:08:10;;;;;;;2.60;1.50;;;;;;;-3.16;71.83;97667.81;105193;1271;75509;-23
2022/01/21 02:10:39;;;;;;;3.00;1.50;;;;;;;-3.34;72.60;97675.45;104788;1271;74956;-23
2022/01/21 02:21:45;;;;;;;3.70;1.60;;;;;;;-2.89;70.32;97658.00;105159;1271;74679;-23
2022/01/21 02:24:29;;;;;;;2.10;1.50;;;;;;;-2.85;69.46;97650.73;105121;1271;76012;-23
2022/01/21 02:26:59;;;;;;;2.70;1.60;;;;;;;-3.02;69.65;97656.76;104839;1274;73551;-23
2022/01/21 02:29:30;;;;;;;1.70;1.10;;;;;;;-3.13;69.78;97651.90;105071;1271;61032;-24
2022/01/21 02:32:00;;;;;;;4.90;1.90;;;;;;;-3.30;70.21;97641.81;105151;1271;61045;-23
2022/01/21 02:34:30;;;;;;;4.10;1.70;;;;;;;-3.37;70.28;97648.58;105160;1271;75627;-23
2022/01/21 02:37:06;;;;;;;2.50;1.10;;;;;;;-3.45;70.12;97619.27;105129;1271;75987;-23
2022/01/21 02:39:34;;;;;;;5.80;2.00;;;;;;;-3.54;70.05;97631.60;105151;1271;74339;-23
2022/01/21 02:42:04;;;;;;;1.90;1.20;;;;;;;-3.40;69.67;97630.89;105131;1271;62742;-23
2022/01/21 02:44:33;;;;;;;1.90;1.30;;;;;;;-2.98;67.88;97627.72;105149;1271;61104;-23
2022/01/21 02:47:03;;;;;;;4.00;1.90;;;;;;;-2.90;66.94;97627.32;104883;1271;75585;-23
2022/01/21 02:49:35;;;;;;;3.80;2.10;;;;;;;-2.99;67.50;97635.75;105140;1271;74488;-23
2022/01/21 02:52:06;;;;;;;3.10;1.10;;;;;;;-3.08;67.15;97618.85;105175;1271;74090;-23
2022/01/21 02:54:35;;;;;;;2.80;1.70;;;;;;;-3.19;67.78;97640.77;105136;1271;61067;-23
2022/01/21 02:57:05;;;;;;;3.30;1.30;;;;;;;-3.31;67.77;97615.06;105181;1271;61157;-23
2022/01/21 02:59:33;;;;;;;2.10;1.10;;;;;;;-3.37;68.15;97635.88;104678;1271;75788;-23
2022/01/21 03:02:03;;;;;;;2.40;1.30;;;;;;;-3.45;67.91;97609.38;105000;1271;76122;-23
2022/01/21 03:07:03;;;;;;;7.90;1.70;;;;;;;-3.57;68.53;97623.88;105047;1274;61150;-23
2022/01/21 03:09:32;;;;;;;2.60;1.60;;;;;;;-3.39;68.27;97621.71;105203;1271;61121;-23
2022/01/21 03:12:00;;;;;;;2.70;1.30;;;;;;;-3.03;67.04;97608.92;105179;1271;74476;-23
2022/01/21 03:14:28;;;;;;;4.60;1.10;;;;;;;-2.76;66.61;97628.38;105229;1271;73246;-23
2022/01/21 03:16:57;;;;;;;8.70;1.90;;;;;;;-2.96;67.05;97617.42;104895;1271;72422;-23
2022/01/21 03:19:38;;;;;;;3.40;1.30;;;;;;;-3.06;67.71;97626.09;104930;1271;61103;-23
2022/01/21 03:22:06;;;;;;;10.30;1.20;;;;;;;-3.23;68.41;97627.73;104957;1271;61031;-23
2022/01/21 03:24:35;;;;;;;2.80;1.50;;;;;;;-3.39;69.26;97634.41;104808;1271;74722;-23
2022/01/21 03:27:04;;;;;;;3.80;1.80;;;;;;;-3.54;69.61;97615.78;104964;1271;76127;-23
2022/01/21 03:29:32;;;;;;;4.00;2.00;;;;;;;-3.62;70.18;97624.48;104860;1271;73161;-23
2022/01/21 03:32:09;;;;;;;2.50;1.20;;;;;;;-3.63;70.58;97639.11;104930;1271;62670;-23
2022/01/21 03:34:38;;;;;;;4.00;2.00;;;;;;;-3.22;69.60;97642.98;104802;1272;61038;-23
2022/01/21 03:37:06;;;;;;;2.90;1.70;;;;;;;-2.81;67.75;97630.30;105014;1271;72873;-23
2022/01/21 03:39:35;;;;;;;2.10;1.50;;;;;;;-2.81;67.36;97632.48;105092;1271;74419;-23
2022/01/21 03:42:04;;;;;;;5.00;1.80;;;;;;;-2.86;67.08;97624.75;105173;1271;74190;-23
2022/01/21 03:44:33;;;;;;;3.60;1.80;;;;;;;-3.04;67.86;97625.45;105134;1270;61124;-23
2022/01/21 03:47:02;;;;;;;2.30;1.60;;;;;;;-3.12;68.23;97628.92;105214;1271;61052;-23
2022/01/21 03:49:37;;;;;;;5.30;2.00;;;;;;;-3.20;68.76;97620.98;105162;1271;73487;-24
2022/01/21 03:52:06;;;;;;;3.90;1.70;;;;;;;-3.26;68.67;97641.98;105196;1271;75133;-23
2022/01/21 03:54:36;;;;;;;3.30;2.30;;;;;;;-3.32;69.07;97635.63;104714;1271;74608;-23
2022/01/21 03:57:04;;;;;;;4.00;2.40;;;;;;;-3.38;69.12;97623.54;104925;1271;61138;-23
2022/01/21 03:59:33;;;;;;;5.30;1.80;;;;;;;-3.25;68.87;97623.09;104969;1271;61409;-23
2022/01/21 04:02:04;;;;;;;3.30;1.70;;;;;;;-2.81;67.64;97622.50;104983;1271;75503;-23
2022/01/21 04:04:33;;;;;;;5.20;2.10;;;;;;;-2.71;67.02;97623.36;105176;1270;75821;-23
2022/01/21 04:07:03;;;;;;;2.90;1.80;;;;;;;-2.81;66.93;97616.50;105139;1272;71555;-23
2022/01/21 04:09:38;;;;;;;3.40;2.20;;;;;;;-2.94;67.06;97595.42;104845;1271;61127;-23
2022/01/21 04:12:09;;;;;;;4.40;2.30;;;;;;;-3.05;67.35;97602.24;104907;1270;61025;-24
2022/01/21 04:14:41;;;;;;;4.20;2.00;;;;;;;-3.14;68.36;97633.76;104793;1271;75813;-24
2022/01/21 04:17:10;;;;;;;9.80;2.50;;;;;;;-3.32;68.82;97630.34;104895;1271;75152;-23
2022/01/21 04:19:39;;;;;;;6.50;2.80;;;;;;;-3.39;69.10;97632.55;104819;1271;73274;-23
2022/01/21 04:22:08;;;;;;;5.00;2.40;;;;;;;-3.52;69.56;97614.84;104818;1271;61149;-23
2022/01/21 04:24:38;;;;;;;5.30;2.70;;;;;;;-3.49;69.52;97616.05;104952;1271;61028;-23
2022/01/21 04:27:06;;;;;;;3.00;1.90;;;;;;;-2.99;67.69;97630.15;104831;1271;75584;-23
2022/01/21 04:29:36;;;;;;;3.70;2.10;;;;;;;-2.93;67.15;97631.19;104944;1271;75919;-23
2022/01/21 04:32:06;;;;;;;6.90;2.30;;;;;;;-3.00;67.20;97615.43;104949;1271;74432;-23
2022/01/21 04:34:36;;;;;;;8.80;2.70;;;;;;;-3.12;67.36;97596.33;104891;1271;61061;-23
2022/01/21 04:37:11;;;;;;;9.20;2.80;;;;;;;-3.30;68.22;97631.95;105105;1271;63014;-23
2022/01/21 04:48:30;;;;;;;4.70;1.90;;;;;;;-3.75;69.70;97636.76;105146;1271;62327;-23
2022/01/21 04:51:12;;;;;;;4.30;2.10;;;;;;;-3.33;68.29;97638.92;105154;1271;61028;-23
2022/01/21 04:53:42;;;;;;;8.80;2.60;;;;;;;-3.01;66.94;97630.43;105136;1271;72673;-23
2022/01/21 04:56:15;;;;;;;4.20;2.10;;;;;;;-3.10;67.09;97619.14;105091;1271;74981;-23
2022/01/21 04:58:44;;;;;;;4.50;2.30;;;;;;;-3.18;67.91;97628.17;105107;1271;72967;-23
2022/01/21 05:01:12;;;;;;;3.80;1.80;;;;;;;-3.34;68.77;97634.54;104814;1271;61160;-23
2022/01/21 05:03:42;;;;;;;3.10;2.00;;;;;;;-3.52;69.91;97623.81;104841;1271;61223;-23
2022/01/21 05:06:10;;;;;;;5.10;1.90;;;;;;;-3.57;69.58;97604.40;104894;1271;74586;-23
2022/01/21 05:08:44;;;;;;;5.10;2.10;;;;;;;-3.66;69.90;97621.09;104833;1271;76058;-23
2022/01/21 05:11:16;;;;;;;3.40;1.90;;;;;;;-3.69;70.46;97633.27;104705;1274;72876;-23
2022/01/21 05:13:56;;;;;;;2.90;1.70;;;;;;;-3.36;69.53;97640.05;104725;1271;61151;-23
2022/01/21 05:16:35;;;;;;;3.30;2.10;;;;;;;-3.03;68.05;97646.27;104828;1271;61996;-23
2022/01/21 05:19:14;;;;;;;3.50;1.80;;;;;;;-3.09;67.33;97622.30;105197;1271;75219;-23
2022/01/21 05:22:07;;;;;;;4.90;1.90;;;;;;;-3.26;67.86;97621.92;105127;1271;75123;-23
2022/01/21 05:24:42;;;;;;;3.70;2.00;;;;;;;-3.39;68.42;97636.48;105163;1271;74313;-23
2022/01/21 05:27:12;;;;;;;3.50;2.10;;;;;;;-3.53;69.43;97631.32;104960;1271;61138;-23
2022/01/21 05:29:47;;;;;;;5.90;2.30;;;;;;;-3.65;70.15;97633.58;104923;1271;61083;-23
2022/01/21 05:32:44;;;;;;;4.20;2.00;;;;;;;-3.69;70.66;97645.13;104988;1271;75560;-22
2022/01/21 05:35:24;;;;;;;5.70;2.50;;;;;;;-3.44;69.46;97630.77;105059;1271;76159;-23
2022/01/21 05:38:12;;;;;;;4.90;2.80;;;;;;;-3.08;68.13;97655.71;104916;1271;73434;-22
2022/01/21 05:41:06;;;;;;;10.10;2.20;;;;;;;-3.08;67.74;97634.65;104957;1271;61601;-22
2022/01/21 05:44:00;;;;;;;4.80;2.30;;;;;;;-3.28;68.78;97656.47;105132;1270;62065;-23
2022/01/21 05:49:43;;;;;;;4.50;2.30;;;;;;;-3.51;70.18;97641.78;105021;1271;75901;-23
2022/01/21 05:52:46;;;;;;;6.20;2.60;;;;;;;-3.67;70.91;97654.03;104997;1271;74085;-24
2022/01/21 05:55:32;;;;;;;5.70;2.10;;;;;;;-3.62;71.57;97665.02;105097;1271;62764;-23
2022/01/21 05:58:13;;;;;;;7.60;2.20;;;;;;;-3.17;69.97;97658.02;105001;1271;61260;-22
2022/01/21 06:00:44;;;;;;;7.60;2.40;;;;;;;-2.93;68.66;97663.47;104819;1272;73031;-22
2022/01/21 06:03:13;;;;;;;7.20;2.50;;;;;;;-3.14;68.68;97649.20;104813;1271;73244;-22
2022/01/21 06:05:43;;;;;;;5.10;2.60;;;;;;;-3.35;69.67;97649.34;105102;1271;74476;-22
2022/01/21 06:08:11;;;;;;;2.80;1.60;;;;;;;-3.38;70.10;97680.20;105037;1271;61274;-23
2022/01/21 06:10:40;;;;;;;4.40;1.80;;;;;;;-3.44;70.28;97665.23;105158;1271;61230;-22
2022/01/21 06:13:08;;;;;;;4.80;2.60;;;;;;;-3.53;70.24;97644.44;105224;1271;74071;-22
2022/01/21 06:15:38;;;;;;;6.00;2.60;;;;;;;-3.67;71.05;97645.23;105156;1270;75740;-22
2022/01/21 06:18:06;;;;;;;5.60;2.00;;;;;;;-3.45;70.12;97659.15;105146;1271;72854;-22
2022/01/21 06:20:34;;;;;;;5.00;2.10;;;;;;;-3.02;68.26;97648.11;104965;1271;61244;-22
2022/01/21 06:23:03;;;;;;;3.60;2.20;;;;;;;-3.00;68.04;97645.12;105213;1271;62010;-23
2022/01/21 06:25:32;;;;;;;8.80;2.50;;;;;;;-3.08;67.88;97618.05;105195;1271;75726;-22
2022/01/21 06:28:00;;;;;;;6.20;2.40;;;;;;;-3.25;68.52;97639.04;105202;1271;76749;-22
2022/01/21 06:30:28;;;;;;;6.40;2.20;;;;;;;-3.33;68.55;97649.94;105210;1271;73527;-22
2022/01/21 06:32:57;;;;;;;8.00;2.60;;;;;;;-3.44;69.12;97649.76;105126;1271;61249;-22
2022/01/21 06:35:25;;;;;;;5.40;2.30;;;;;;;-3.55;69.72;97652.80;105181;1271;62062;-22
2022/01/21 06:37:53;;;;;;;5.20;2.40;;;;;;;-3.61;69.98;97664.48;105276;1271;75582;-22
2022/01/21 06:40:22;;;;;;;12.40;2.60;;;;;;;-3.49;69.33;97639.11;104864;1270;239969;-22
2022/01/21 06:42:50;;;;;;;5.10;2.20;;;;;;;-3.08;67.48;97627.38;105107;1271;72928;-22
2022/01/21 06:45:19;;;;;;;5.80;2.50;;;;;;;-2.92;66.93;97665.64;105230;1271;61028;-22
2022/01/21 06:47:47;;;;;;;5.60;2.00;;;;;;;-2.99;67.47;97650.37;105206;1271;61791;-22
2022/01/21 06:50:16;;;;;;;5.30;2.90;;;;;;;-3.17;68.38;97671.92;105254;1271;75292;-23
2022/01/21 06:52:44;;;;;;;5.20;1.90;;;;;;;-3.29;68.00;97631.43;105162;1271;76026;-22
2022/01/21 06:55:12;;;;;;;6.30;2.80;;;;;;;-3.35;68.45;97661.26;104951;1270;73648;-22
2022/01/21 06:57:41;;;;;;;6.80;2.40;;;;;;;-3.53;68.79;97647.50;104930;1271;61195;-22
2022/01/21 07:00:11;;;;;;;5.60;2.20;;;;;;;-3.61;69.60;97662.61;105039;1270;61840;-22
2022/01/21 07:02:42;;;;;;;7.50;2.30;;;;;;;-3.62;70.26;97672.48;104904;1271;75585;-22
2022/01/21 07:05:10;;;;;;;4.80;2.10;;;;;;;-3.25;68.91;97668.55;105034;1271;73881;-25
2022/01/21 07:07:39;;;;;;;5.40;2.40;;;;;;;-3.03;67.80;97638.16;105005;1271;73211;-24
2022/01/21 07:10:09;;;;;;;6.40;2.70;;;;;;;-3.11;68.40;97649.92;105069;1271;61304;-23
2022/01/21 07:12:41;;;;;;;6.80;2.20;;;;;;;-3.22;69.32;97655.55;104681;1271;61214;-24
2022/01/21 07:15:10;;;;;;;3.80;2.00;;;;;;;-3.35;70.54;97676.99;104761;1271;73997;-24
2022/01/21 07:17:38;;;;;;;5.80;2.40;;;;;;;-3.47;71.22;97672.81;104876;1271;75041;-24
2022/01/21 07:20:07;;;;;;;7.00;2.50;;;;;;;-3.63;72.25;97677.61;105238;1271;73426;-24
2022/01/21 07:22:36;;;;;;;2.90;2.00;;;;;;;-3.73;72.45;97663.46;104887;1271;61291;-22
2022/01/21 07:25:05;;;;;;;4.00;2.00;;;;;;;-3.49;71.73;97667.64;105100;1271;62643;-23
2022/01/21 07:27:33;;;;;;;5.70;2.50;;;;;;;-3.15;71.04;97679.80;105207;1271;74256;-23
2022/01/21 07:30:03;;;;;;;4.00;2.50;;;;;;;-3.20;70.87;97676.67;105255;1271;75825;-23
2022/01/21 07:32:31;;;;;;;5.20;2.20;;;;;;;-3.35;71.12;97686.84;105141;1271;73319;-23
2022/01/21 07:35:00;;;;;;;6.70;2.50;;;;;;;-3.43;71.32;97683.66;105164;1271;61864;-23
2022/01/21 07:37:28;;;;;;;8.00;3.00;;;;;;;-3.54;71.13;97667.34;105320;1271;61083;-23
2022/01/21 07:39:57;;;;;;;10.90;2.40;;;;;;;-3.64;71.00;97672.73;105282;1271;75963;-23
2022/01/21 07:42:26;;;;;;;6.60;2.50;;;;;;;-3.67;70.85;97690.55;105290;1271;74823;-23
2022/01/21 07:44:54;;;;;;;3.40;1.70;;;;;;;-3.45;70.16;97683.56;105154;1271;73391;-23
2022/01/21 07:47:23;;;;;;;5.60;2.10;;;;;;;-2.96;68.09;97692.48;104906;1271;61236;-23
2022/01/21 07:49:51;;;;;;;4.90;1.70;;;;;;;-2.95;67.49;97687.02;104956;1271;61754;-23
2022/01/21 07:52:20;;;;;;;1.90;1.50;;;;;;;-3.11;67.12;97689.27;105104;1271;74044;-23
2022/01/21 07:54:48;;;;;;;5.50;2.40;;;;;;;-3.11;67.72;97712.23;105012;1271;76304;-24
2022/01/21 07:57:17;;;;;;;7.90;1.40;;;;;;;-3.27;67.21;97672.23;104860;1271;74309;-23
2022/01/21 07:59:45;;;;;;;5.80;1.80;;;;;;;-3.33;67.44;97697.80;104930;1271;61155;-23
2022/01/21 08:02:13;;;;;;;3.90;1.80;;;;;;;-3.47;67.12;97671.30;104921;1271;61084;-23
2022/01/21 08:04:42;;;;;;;8.00;1.90;;;;;;;-3.49;67.55;97692.71;104853;1270;75399;-23
2022/01/21 08:07:11;;;;;;;4.70;2.20;;;;;;;-3.53;67.29;97654.25;105011;1271;74974;-23
2022/01/21 08:09:39;;;;;;;3.90;1.50;;;;;;;-3.57;67.35;97685.30;105005;1271;73316;-24
2022/01/21 08:12:09;;;;;;;5.00;1.80;;;;;;;-3.59;67.72;97689.31;105189;1271;61083;-23
2022/01/21 08:14:38;;;;;;;4.60;1.90;;;;;;;-3.62;67.30;97664.33;105120;1271;61106;-23
2022/01/21 08:17:07;;;;;;;5.00;1.80;;;;;;;-3.63;67.44;97666.41;104997;1271;75708;-23
2022/01/21 08:19:36;;;;;;;3.60;1.80;;;;;;;-3.45;66.56;97677.11;104857;1271;75032;-23
2022/01/21 08:22:04;;;;;;;5.70;2.60;;;;;;;-3.07;65.49;97686.21;104845;1271;74402;-23
2022/01/21 08:24:33;;;;;;;4.30;1.50;;;;;;;-2.90;64.67;97680.16;104933;1271;61173;-24
2022/01/21 08:27:02;;;;;;;7.60;1.70;;;;;;;-2.96;65.32;97703.20;104934;1271;61044;-23
2022/01/21 08:29:34;;;;;;;7.20;2.30;;;;;;;-3.11;65.49;97691.20;104932;1271;74213;-23
2022/01/21 08:32:04;;;;;;;5.60;2.20;;;;;;;-3.22;65.41;97684.38;104825;1271;76050;-23
2022/01/21 08:34:34;;;;;;;4.10;1.70;;;;;;;-3.31;66.23;97689.23;104959;1271;73294;-23
2022/01/21 08:37:03;;;;;;;1.80;1.40;;;;;;;-3.35;66.57;97699.06;104955;1271;61140;-23
2022/01/21 08:39:32;;;;;;;5.00;1.50;;;;;;;-3.33;66.54;97689.64;105125;1271;61871;-23
2022/01/21 08:42:00;;;;;;;5.60;2.20;;;;;;;-3.38;66.64;97666.48;105303;1270;75312;-23
2022/01/21 08:44:29;;;;;;;8.20;2.20;;;;;;;-3.56;67.71;97650.51;105023;1271;75111;-23
2022/01/21 08:46:57;;;;;;;9.40;2.30;;;;;;;-3.64;68.14;97678.33;104918;1271;74446;-26
2022/01/21 08:49:40;;;;;;;11.40;1.90;;;;;;;-3.48;68.54;97703.89;104947;1271;62716;-23
2022/01/21 08:52:18;;;;;;;4.80;1.70;;;;;;;-3.04;67.44;97682.36;105183;1271;61818;-23
2022/01/21 08:54:47;;;;;;;10.10;2.00;;;;;;;-2.92;66.47;97682.80;105083;1271;74452;-23
2022/01/21 08:57:16;;;;;;;8.70;2.10;;;;;;;-3.05;67.54;97702.95;105167;1271;76167;-23
2022/01/21 08:59:44;;;;;;;2.90;1.60;;;;;;;-3.14;68.31;97706.92;105317;1271;74344;-23
2022/01/21 09:02:13;;;;;;;3.50;1.70;;;;;;;-3.28;68.63;97699.08;105298;1270;61528;-23
2022/01/21 09:04:41;;;;;;;6.10;2.40;;;;;;;-3.32;69.98;97729.85;105312;1271;61081;-23
2022/01/21 09:07:10;;;;;;;3.30;1.60;;;;;;;-3.42;70.26;97723.67;105329;1271;75492;-23
2022/01/21 09:09:38;;;;;;;4.80;1.90;;;;;;;-3.50;71.18;97710.11;105270;1271;75893;-23
2022/01/21 09:12:07;;;;;;;7.30;1.80;;;;;;;-3.37;70.69;97680.67;105128;1271;73496;-22
2022/01/21 09:14:36;;;;;;;10.80;2.10;;;;;;;-3.03;70.15;97687.40;104861;1271;61118;-23
2022/01/21 09:17:04;;;;;;;3.80;2.30;;;;;;;-2.96;70.11;97695.39;105062;1270;61085;-23
2022/01/21 09:19:33;;;;;;;9.00;1.70;;;;;;;-3.09;70.86;97699.73;105004;1271;75579;-23
2022/01/21 09:22:02;;;;;;;5.80;1.80;;;;;;;-3.27;72.08;97694.45;105037;1271;75989;-23
2022/01/21 09:24:33;;;;;;;6.50;2.10;;;;;;;-3.41;72.56;97699.69;104947;1271;74534;-23
2022/01/21 09:27:01;;;;;;;6.10;1.40;;;;;;;-3.42;73.87;97722.16;104852;1271;61123;-23
2022/01/21 09:29:30;;;;;;;3.80;2.00;;;;;;;-3.26;72.78;97693.89;104741;1271;61697;-23
2022/01/21 09:31:59;;;;;;;4.10;1.40;;;;;;;-2.94;71.60;97700.89;104777;1271;75572;-23
2022/01/21 09:34:28;;;;;;;5.70;2.00;;;;;;;-2.93;71.00;97693.86;104994;1271;76148;-23
2022/01/21 09:36:58;;;;;;;5.90;1.90;;;;;;;-2.96;71.06;97675.35;104806;1271;72952;-23
2022/01/21 09:39:27;;;;;;;5.30;2.40;;;;;;;-3.09;71.74;97689.37;104713;1271;61067;-23
2022/01/21 09:41:58;;;;;;;5.50;1.80;;;;;;;-3.27;72.26;97670.20;104795;1271;61101;-23
2022/01/21 09:44:27;;;;;;;9.60;2.30;;;;;;;-3.30;73.42;97694.44;104803;1271;75534;-23
2022/01/21 09:46:59;;;;;;;3.50;1.80;;;;;;;-3.37;74.28;97690.86;104865;1271;75950;-23
2022/01/21 09:49:27;;;;;;;4.60;2.00;;;;;;;-3.07;72.83;97671.63;105012;1271;74160;-23
2022/01/21 09:52:02;;;;;;;4.10;2.10;;;;;;;-2.83;72.16;97682.37;105319;1271;61032;-22
2022/01/21 09:54:33;;;;;;;8.30;1.30;;;;;;;-2.81;72.39;97675.82;105016;1271;61143;-23
2022/01/21 09:57:03;;;;;;;2.80;1.70;;;;;;;-2.88;72.44;97667.51;105079;1271;74163;-21
2022/01/21 09:59:33;;;;;;;3.90;1.70;;;;;;;-3.11;73.19;97669.95;104824;1271;75291;-22
2022/01/21 10:02:05;;;;;;;6.20;2.00;;;;;;;-3.21;73.87;97671.96;104799;1271;73548;-22
2022/01/21 10:04:39;;;;;;;3.00;2.10;;;;;;;-3.30;74.27;97672.54;104779;1271;62647;-23
2022/01/21 10:07:10;;;;;;;5.30;1.80;;;;;;;-2.98;73.41;97655.40;104653;1271;61110;-22
2022/01/21 10:09:38;;;;;;;4.60;2.10;;;;;;;-2.64;71.70;97650.84;104757;1271;75621;-22
2022/01/21 10:12:07;;;;;;;4.50;1.90;;;;;;;-2.76;71.82;97650.92;104890;1271;75713;-23
2022/01/21 10:14:37;;;;;;;7.30;2.20;;;;;;;-2.99;73.33;97670.57;104744;1271;73643;-24
2022/01/21 10:17:09;;;;;;;3.90;1.60;;;;;;;-3.00;74.16;97660.42;104996;1271;61563;-23
2022/01/21 10:19:45;;;;;;;2.40;1.60;;;;;;;-2.94;74.02;97678.83;105072;1271;61766;-24
2022/01/21 10:22:17;;;;;;;3.30;1.40;;;;;;;-2.88;73.70;97678.36;105185;1271;75476;-24
2022/01/21 10:25:00;;;;;;;3.90;2.10;;;;;;;-2.47;71.57;97662.94;105133;1271;76021;-24
2022/01/21 10:27:35;;;;;;;7.70;2.30;;;;;;;-2.40;70.02;97647.63;105048;1271;74421;-24
2022/01/21 10:30:24;;;;;;;10.30;2.20;;;;;;;-2.49;70.14;97650.80;104898;1271;61170;-24
2022/01/21 10:32:54;;;;;;;4.20;2.00;;;;;;;-2.56;70.48;97655.88;105031;1271;61224;-24
2022/01/21 10:35:35;;;;;;;3.60;1.60;;;;;;;-2.69;70.78;97637.35;104967;1271;75563;-24
2022/01/21 10:38:28;;;;;;;4.50;2.10;;;;;;;-2.74;71.38;97658.48;105107;1271;74669;-24
2022/01/21 10:41:07;;;;;;;4.30;1.90;;;;;;;-2.89;71.75;97630.19;105156;1269;73398;-24
2022/01/21 10:43:36;;;;;;;6.90;2.30;;;;;;;-2.89;71.91;97637.34;105100;1271;61269;-24
2022/01/21 10:46:05;;;;;;;4.80;1.70;;;;;;;-2.43;70.35;97640.31;104906;1271;61000;-24
2022/01/21 10:48:57;;;;;;;4.70;2.00;;;;;;;-2.24;69.50;97649.04;104859;1271;73787;-24
2022/01/21 10:51:28;;;;;;;3.30;1.50;;;;;;;-2.28;69.08;97621.86;105128;1271;76034;-24
2022/01/21 10:53:57;;;;;;;3.30;1.70;;;;;;;-2.29;69.15;97603.04;105112;1271;73174;-24
2022/01/21 10:56:26;;;;;;;6.00;2.50;;;;;;;-2.50;70.09;97625.52;105163;1271;61131;-24
2022/01/21 10:58:56;;;;;;;10.80;2.30;;;;;;;-2.69;70.67;97645.50;105053;1271;61054;-24
2022/01/21 11:01:28;;;;;;;8.00;2.30;;;;;;;-2.76;71.03;97628.17;104928;1271;75376;-24
2022/01/21 11:04:01;;;;;;;5.20;1.80;;;;;;;-2.84;71.73;97610.55;104842;1271;75669;-24
2022/01/21 11:06:39;;;;;;;5.60;2.20;;;;;;;-2.51;71.12;97627.44;104931;1271;73374;-24
2022/01/21 11:09:21;;;;;;;6.40;1.80;;;;;;;-2.34;70.08;97628.42;105116;1271;61175;-24
2022/01/21 11:12:07;;;;;;;6.70;2.60;;;;;;;-2.44;70.34;97644.44;105170;1271;61054;-24
2022/01/21 11:14:36;;;;;;;9.20;2.90;;;;;;;-2.54;71.30;97628.80;105177;1271;75516;-24
2022/01/21 11:17:12;;;;;;;4.50;2.10;;;;;;;-2.65;72.30;97654.84;104886;1271;74886;-24
2022/01/21 11:20:04;;;;;;;14.40;2.70;;;;;;;-2.73;72.28;97641.30;104875;1271;74434;-23
2022/01/21 11:22:54;;;;;;;13.20;2.40;;;;;;;-2.77;72.25;97631.95;104899;1271;62913;-23
2022/01/21 11:25:41;;;;;;;9.20;2.10;;;;;;;-2.38;71.17;97640.02;104821;1270;61156;-23
2022/01/21 11:28:13;;;;;;;5.50;2.30;;;;;;;-2.27;70.87;97660.20;104901;1271;75526;-23
2022/01/21 11:30:41;;;;;;;4.20;1.70;;;;;;;-2.22;70.43;97652.02;104870;1271;75093;-23
2022/01/21 11:33:10;;;;;;;4.90;2.30;;;;;;;-2.29;70.85;97650.98;104919;1270;74435;-23
2022/01/21 11:35:38;;;;;;;4.70;2.30;;;;;;;-2.52;71.72;97657.58;104943;1271;61169;-23
2022/01/21 11:38:09;;;;;;;4.40;1.70;;;;;;;-2.69;71.33;97610.81;104990;1270;60992;-23
2022/01/21 11:40:38;;;;;;;6.30;2.00;;;;;;;-2.80;72.26;97628.85;104900;1271;74513;-23
2022/01/21 11:43:07;;;;;;;5.40;2.00;;;;;;;-2.47;71.33;97641.02;104822;1271;75218;-23
2022/01/21 11:51:36;;;;;;;8.70;1.90;;;;;;;-2.34;70.69;97660.90;104954;1271;61037;-25
2022/01/21 11:54:09;;;;;;;3.80;1.80;;;;;;;-2.39;71.13;97669.01;104934;1270;75734;-23
2022/01/21 11:56:56;;;;;;;15.30;2.30;;;;;;;-2.46;71.81;97669.36;104958;1271;73152;-24
2022/01/21 12:02:23;;;;;;;7.90;2.00;;;;;;;-2.43;71.47;97645.75;104882;1271;61252;-24
2022/01/21 12:04:58;;;;;;;3.80;1.90;;;;;;;-2.22;70.72;97669.46;105101;1271;61030;-24
2022/01/21 12:07:44;;;;;;;11.10;2.20;;;;;;;-2.19;70.50;97666.80;104917;1270;75442;-24
2022/01/21 12:10:23;;;;;;;6.00;2.10;;;;;;;-2.32;70.90;97646.02;105172;1270;75067;-24
2022/01/21 12:13:07;;;;;;;3.60;1.80;;;;;;;-2.54;71.74;97667.20;104932;1271;74476;-24
2022/01/21 12:20:48;;;;;;;7.80;2.10;;;;;;;-2.25;71.08;97656.70;104952;1271;74584;-22
2022/01/21 12:23:18;;;;;;;5.60;2.00;;;;;;;-2.07;70.57;97666.17;104758;1271;74974;-24
2022/01/21 12:26:09;;;;;;;6.20;2.20;;;;;;;-2.04;70.03;97663.09;104721;1271;73968;-23
2022/01/21 12:28:41;;;;;;;6.00;2.40;;;;;;;-2.21;70.71;97662.31;104741;1271;61301;-21
2022/01/21 12:31:12;;;;;;;3.60;2.40;;;;;;;-2.39;71.35;97671.02;104786;1271;61280;-22
2022/01/21 12:34:06;;;;;;;8.30;2.30;;;;;;;-2.39;71.26;97670.71;104838;1271;74080;-23
2022/01/21 12:36:40;;;;;;;3.70;2.00;;;;;;;-2.50;71.41;97646.44;104853;1271;76088;-24
2022/01/21 12:39:41;;;;;;;5.10;2.40;;;;;;;-2.28;71.07;97672.36;104779;1271;74410;-25
2022/01/21 12:42:23;;;;;;;4.20;2.40;;;;;;;-1.85;68.80;97665.57;104907;1271;61134;-24
2022/01/21 12:44:55;;;;;;;9.80;2.20;;;;;;;-2.03;69.28;97674.45;104846;1271;61021;-23
2022/01/21 12:47:37;;;;;;;6.40;2.10;;;;;;;-2.03;69.59;97675.32;104752;1271;74628;-25
2022/01/21 12:58:31;;;;;;;4.00;1.90;;;;;;;-2.50;70.72;97643.54;104966;1271;61021;-22
2022/01/21 13:01:01;;;;;;;7.70;2.10;;;;;;;-2.23;70.22;97678.40;104936;1274;75605;-22